Time;durP1;ratioP1;P1;durP2;ratioP2;P2;SDS_P1;SDS_P2;PMS_P1;PMS_P2;Temp;Humidity;BMP_temperature;BMP_pressure;BME280_temperature;BME280_humidity;BME280_pressure;Samples;Min_cycle;Max_cycle;Signal;HPM_P1;HPM_P2
2023/09/14 00:00:46;;;;;;;10.13;2.75;;;;;;;;;;5065983;28;20041;-58
2023/09/14 00:03:12;;;;;;;8.82;2.72;;;;;;;;;;5059517;28;20044;-58
2023/09/14 00:05:47;;;;;;;7.68;3.03;;;;;;;;;;5047673;28;20064;-58
2023/09/14 00:08:14;;;;;;;8.20;2.97;;;;;;;;;;5045713;28;20052;-58
2023/09/14 00:10:40;;;;;;;9.25;3.13;;;;;;;;;;5047404;28;20036;-58
2023/09/14 00:13:07;;;;;;;9.20;2.95;;;;;;;;;;5065020;28;20040;-58
2023/09/14 00:15:33;;;;;;;13.07;3.20;;;;;;;;;;5067490;28;20043;-58
2023/09/14 00:18:00;;;;;;;6.65;3.15;;;;;;;;;;5065498;28;20104;-58
2023/09/14 00:20:27;;;;;;;10.82;2.95;;;;;;;;;;5071101;28;20369;-58
2023/09/14 00:22:57;;;;;;;7.88;3.05;;;;;;;;;;5063838;28;20070;-59
2023/09/14 00:25:23;;;;;;;8.88;3.08;;;;;;;;;;5063384;28;20098;-59
2023/09/14 00:27:50;;;;;;;8.70;3.40;;;;;;;;;;5061131;28;20520;-58
2023/09/14 00:30:16;;;;;;;13.27;3.63;;;;;;;;;;5061049;28;20076;-58
2023/09/14 00:32:43;;;;;;;9.27;3.13;;;;;;;;;;5067929;28;20055;-58
2023/09/14 00:35:09;;;;;;;8.20;3.00;;;;;;;;;;5061496;28;20036;-58
2023/09/14 00:37:36;;;;;;;5.75;2.95;;;;;;;;;;5058537;28;20138;-59
2023/09/14 00:40:06;;;;;;;9.95;3.30;;;;;;;;;;5062277;28;20037;-58
2023/09/14 00:42:41;;;;;;;12.43;3.25;;;;;;;;;;5057898;28;20052;-58
2023/09/14 00:45:08;;;;;;;9.20;3.70;;;;;;;;;;5063928;28;20048;-58
2023/09/14 00:47:35;;;;;;;7.18;2.97;;;;;;;;;;5059882;28;20127;-58
2023/09/14 00:50:02;;;;;;;5.82;3.20;;;;;;;;;;5066531;28;20049;-58
2023/09/14 00:52:28;;;;;;;11.52;3.50;;;;;;;;;;5064185;28;20040;-58
2023/09/14 00:54:55;;;;;;;4.88;2.75;;;;;;;;;;5059360;28;20048;-58
2023/09/14 00:57:21;;;;;;;9.02;3.40;;;;;;;;;;5091024;28;20496;-58
2023/09/14 00:59:47;;;;;;;7.75;3.42;;;;;;;;;;5059503;28;20055;-58
2023/09/14 01:02:13;;;;;;;9.07;3.10;;;;;;;;;;5058977;28;20066;-58
2023/09/14 01:04:41;;;;;;;6.50;2.65;;;;;;;;;;5060230;28;20198;-58
2023/09/14 01:07:07;;;;;;;6.28;2.83;;;;;;;;;;5059347;28;20051;-58
2023/09/14 01:09:34;;;;;;;5.60;2.95;;;;;;;;;;5059737;28;20054;-58
2023/09/14 01:12:00;;;;;;;7.68;2.75;;;;;;;;;;5060442;28;21024;-58
2023/09/14 01:14:31;;;;;;;7.45;3.03;;;;;;;;;;5059442;28;20053;-58
2023/09/14 01:17:02;;;;;;;6.43;3.63;;;;;;;;;;5060523;28;20118;-58
2023/09/14 01:19:48;;;;;;;6.50;2.58;;;;;;;;;;5060869;28;20148;-58
2023/09/14 01:22:15;;;;;;;10.95;3.10;;;;;;;;;;5066798;28;20396;-58
2023/09/14 01:24:47;;;;;;;7.55;3.63;;;;;;;;;;5060762;28;20039;-58
2023/09/14 01:27:14;;;;;;;6.35;2.92;;;;;;;;;;5076293;28;20500;-58
2023/09/14 01:29:40;;;;;;;6.97;2.95;;;;;;;;;;5059821;28;20183;-59
2023/09/14 01:32:07;;;;;;;6.53;3.65;;;;;;;;;;5060608;28;20048;-58
2023/09/14 01:34:33;;;;;;;6.07;2.47;;;;;;;;;;5063947;28;20055;-58
2023/09/14 01:37:04;;;;;;;6.00;3.42;;;;;;;;;;5055393;28;20511;-58
2023/09/14 01:39:30;;;;;;;9.68;3.20;;;;;;;;;;5068275;28;20364;-58
2023/09/14 01:41:57;;;;;;;8.45;3.53;;;;;;;;;;5062727;28;20456;-58
2023/09/14 01:44:25;;;;;;;13.18;4.22;;;;;;;;;;5063696;28;20041;-58
2023/09/14 01:46:51;;;;;;;7.65;3.20;;;;;;;;;;5057744;28;20048;-58
2023/09/14 01:49:18;;;;;;;6.90;3.30;;;;;;;;;;5069107;28;20372;-57
2023/09/14 01:51:44;;;;;;;7.22;3.30;;;;;;;;;;5064508;28;20040;-58
2023/09/14 01:54:10;;;;;;;10.10;3.40;;;;;;;;;;5066116;28;20104;-58
2023/09/14 01:56:37;;;;;;;6.20;3.20;;;;;;;;;;5065168;28;20060;-58
2023/09/14 01:59:03;;;;;;;10.48;3.60;;;;;;;;;;5060363;28;20040;-58
2023/09/14 02:01:30;;;;;;;4.97;2.70;;;;;;;;;;5064245;28;20381;-58
2023/09/14 02:03:56;;;;;;;7.63;2.60;;;;;;;;;;5062715;28;20033;-58
2023/09/14 02:06:22;;;;;;;5.88;2.95;;;;;;;;;;5055706;28;20525;-58
2023/09/14 02:08:48;;;;;;;7.05;3.00;;;;;;;;;;5070116;28;20120;-58
2023/09/14 02:11:14;;;;;;;7.60;3.00;;;;;;;;;;5068894;28;20044;-59
2023/09/14 02:13:41;;;;;;;5.85;2.75;;;;;;;;;;5067788;28;20063;-58
2023/09/14 02:16:07;;;;;;;6.53;3.05;;;;;;;;;;5069977;28;20119;-58
2023/09/14 02:18:33;;;;;;;7.35;2.35;;;;;;;;;;5067788;28;20055;-58
2023/09/14 02:20:59;;;;;;;6.75;3.15;;;;;;;;;;5069956;28;20043;-59
2023/09/14 02:23:25;;;;;;;5.45;2.45;;;;;;;;;;5068056;28;20049;-58
2023/09/14 02:25:52;;;;;;;9.18;2.65;;;;;;;;;;5060280;28;20051;-58
2023/09/14 02:28:21;;;;;;;4.00;1.90;;;;;;;;;;5059134;28;20437;-58
2023/09/14 02:30:48;;;;;;;2.70;1.30;;;;;;;;;;5059736;28;20033;-58
2023/09/14 02:33:14;;;;;;;4.35;1.60;;;;;;;;;;5059238;28;20112;-57
2023/09/14 02:35:40;;;;;;;7.53;2.20;;;;;;;;;;5069369;28;20497;-57
2023/09/14 02:38:07;;;;;;;5.45;2.33;;;;;;;;;;5061283;28;20045;-58
2023/09/14 02:40:34;;;;;;;9.02;2.30;;;;;;;;;;5066163;28;20049;-58
2023/09/14 02:43:00;;;;;;;7.18;2.88;;;;;;;;;;5063434;28;20400;-58
2023/09/14 02:45:27;;;;;;;5.10;2.47;;;;;;;;;;5064433;28;20423;-58
2023/09/14 02:47:53;;;;;;;11.70;2.70;;;;;;;;;;5062090;28;20053;-58
2023/09/14 02:50:19;;;;;;;6.60;2.53;;;;;;;;;;5060999;28;20098;-58
2023/09/14 02:52:45;;;;;;;7.13;2.50;;;;;;;;;;5064291;28;20113;-58
2023/09/14 02:55:12;;;;;;;9.13;2.80;;;;;;;;;;5063575;28;20052;-58
2023/09/14 02:57:38;;;;;;;10.90;2.90;;;;;;;;;;5063479;28;20503;-58
2023/09/14 03:00:07;;;;;;;7.28;2.85;;;;;;;;;;5061524;28;20092;-58
2023/09/14 03:02:34;;;;;;;7.22;3.40;;;;;;;;;;5063484;28;20037;-58
2023/09/14 03:05:00;;;;;;;4.60;2.65;;;;;;;;;;5060847;28;20053;-59
2023/09/14 03:07:26;;;;;;;7.13;3.03;;;;;;;;;;5064852;28;20438;-58
2023/09/14 03:09:52;;;;;;;6.95;3.03;;;;;;;;;;5061218;28;20829;-58
2023/09/14 03:12:18;;;;;;;6.75;3.35;;;;;;;;;;5061323;28;20388;-58
2023/09/14 03:14:45;;;;;;;9.32;3.00;;;;;;;;;;5063460;28;20097;-58
2023/09/14 03:17:12;;;;;;;7.70;3.20;;;;;;;;;;5061759;28;20079;-58
2023/09/14 03:19:38;;;;;;;5.57;3.33;;;;;;;;;;5062859;28;20484;-58
2023/09/14 03:22:04;;;;;;;6.53;3.33;;;;;;;;;;5063078;28;20097;-58
2023/09/14 03:24:30;;;;;;;7.00;2.85;;;;;;;;;;5066279;28;20091;-58
2023/09/14 03:26:56;;;;;;;6.80;3.03;;;;;;;;;;5063037;28;20049;-58
2023/09/14 03:29:22;;;;;;;8.38;3.47;;;;;;;;;;5058722;28;20474;-58
2023/09/14 03:31:50;;;;;;;6.05;3.00;;;;;;;;;;5061538;28;20060;-58
2023/09/14 03:34:16;;;;;;;5.43;3.00;;;;;;;;;;5060943;28;20045;-58
2023/09/14 03:36:43;;;;;;;5.13;2.83;;;;;;;;;;5060569;28;20115;-58
2023/09/14 03:39:11;;;;;;;6.50;2.67;;;;;;;;;;5062305;28;20048;-58
2023/09/14 03:41:37;;;;;;;5.80;3.00;;;;;;;;;;5064362;28;20156;-58
2023/09/14 03:44:03;;;;;;;9.20;3.28;;;;;;;;;;5050790;28;20534;-59
2023/09/14 03:46:30;;;;;;;7.82;2.83;;;;;;;;;;5062799;28;20135;-58
2023/09/14 03:48:56;;;;;;;7.28;2.80;;;;;;;;;;5085287;28;20068;-58
2023/09/14 03:51:22;;;;;;;7.53;2.58;;;;;;;;;;5067343;28;20066;-58
2023/09/14 03:53:48;;;;;;;5.60;2.50;;;;;;;;;;5063009;28;20415;-58
2023/09/14 03:56:15;;;;;;;6.55;2.72;;;;;;;;;;5072011;28;20075;-58
2023/09/14 03:58:42;;;;;;;9.00;2.85;;;;;;;;;;5070346;28;20045;-58
2023/09/14 04:01:09;;;;;;;8.48;3.08;;;;;;;;;;5066620;28;20041;-58
2023/09/14 04:03:35;;;;;;;8.50;3.30;;;;;;;;;;5070333;28;20527;-58
2023/09/14 04:06:01;;;;;;;8.48;3.75;;;;;;;;;;5065810;28;20041;-58
2023/09/14 04:08:27;;;;;;;6.13;3.30;;;;;;;;;;5070211;28;20194;-58
2023/09/14 04:10:54;;;;;;;9.43;3.30;;;;;;;;;;5069288;28;20496;-58
2023/09/14 04:13:28;;;;;;;5.18;2.78;;;;;;;;;;5070727;28;20047;-58
2023/09/14 04:15:54;;;;;;;6.15;2.60;;;;;;;;;;5064427;28;20100;-58
2023/09/14 04:18:21;;;;;;;6.72;2.92;;;;;;;;;;5067397;28;20402;-58
2023/09/14 04:20:47;;;;;;;6.75;2.72;;;;;;;;;;5070758;28;20041;-58
2023/09/14 04:23:14;;;;;;;5.53;2.70;;;;;;;;;;5071394;28;20045;-58
2023/09/14 04:25:44;;;;;;;5.82;2.78;;;;;;;;;;5070581;28;20126;-58
2023/09/14 04:28:23;;;;;;;5.20;2.35;;;;;;;;;;5070600;28;20040;-58
2023/09/14 04:30:50;;;;;;;4.35;2.55;;;;;;;;;;5067307;28;20033;-58
2023/09/14 04:33:16;;;;;;;4.60;2.15;;;;;;;;;;5060887;28;20048;-58
2023/09/14 04:35:43;;;;;;;4.75;2.47;;;;;;;;;;5059590;28;20048;-59
2023/09/14 04:38:09;;;;;;;8.48;1.90;;;;;;;;;;5058930;28;20036;-58
2023/09/14 04:40:43;;;;;;;4.50;2.10;;;;;;;;;;5068333;28;20041;-58
2023/09/14 04:43:09;;;;;;;11.85;2.50;;;;;;;;;;5059821;28;20116;-58
2023/09/14 04:45:36;;;;;;;7.28;2.95;;;;;;;;;;5059254;28;20061;-58
2023/09/14 04:48:02;;;;;;;6.22;2.92;;;;;;;;;;5063742;28;20060;-58
2023/09/14 04:50:28;;;;;;;5.45;2.25;;;;;;;;;;5060503;28;20352;-58
2023/09/14 04:52:55;;;;;;;6.18;1.80;;;;;;;;;;5063825;28;20147;-58
2023/09/14 04:55:21;;;;;;;5.97;2.58;;;;;;;;;;5062508;28;20097;-58
2023/09/14 04:57:47;;;;;;;5.57;2.45;;;;;;;;;;5061652;28;20070;-58
2023/09/14 05:00:14;;;;;;;8.52;2.45;;;;;;;;;;5061361;28;20056;-58
2023/09/14 05:02:41;;;;;;;5.35;2.10;;;;;;;;;;5060311;28;20049;-58
2023/09/14 05:05:10;;;;;;;9.73;2.53;;;;;;;;;;5053091;28;20189;-58
2023/09/14 05:07:38;;;;;;;7.18;2.50;;;;;;;;;;5062444;28;20043;-58
2023/09/14 05:10:04;;;;;;;7.43;2.53;;;;;;;;;;5058297;28;20063;-58
2023/09/14 05:12:30;;;;;;;5.20;2.40;;;;;;;;;;5056259;28;20786;-58
2023/09/14 05:14:56;;;;;;;6.40;3.13;;;;;;;;;;5092004;28;20045;-57
2023/09/14 05:17:23;;;;;;;5.88;2.88;;;;;;;;;;5059450;28;20346;-58
2023/09/14 05:19:49;;;;;;;7.97;2.58;;;;;;;;;;5056034;28;20052;-58
2023/09/14 05:22:15;;;;;;;6.65;2.65;;;;;;;;;;5061209;28;20677;-58
2023/09/14 05:24:41;;;;;;;6.03;2.47;;;;;;;;;;5060837;28;20071;-58
2023/09/14 05:27:07;;;;;;;7.65;2.75;;;;;;;;;;5060700;28;20047;-58
2023/09/14 05:29:34;;;;;;;7.97;2.33;;;;;;;;;;5060542;28;20053;-58
2023/09/14 05:32:00;;;;;;;8.02;2.13;;;;;;;;;;5064321;28;20033;-58
2023/09/14 05:34:26;;;;;;;6.65;2.17;;;;;;;;;;5060438;28;20504;-58
2023/09/14 05:36:52;;;;;;;9.02;2.90;;;;;;;;;;5058311;28;20341;-59
2023/09/14 05:39:19;;;;;;;8.10;2.58;;;;;;;;;;5059342;28;20056;-58
2023/09/14 05:41:46;;;;;;;6.43;2.85;;;;;;;;;;5054275;28;20467;-58
2023/09/14 05:44:13;;;;;;;5.38;2.50;;;;;;;;;;5055155;28;20104;-58
2023/09/14 05:46:39;;;;;;;6.28;2.72;;;;;;;;;;5060577;28;20056;-58
2023/09/14 05:49:06;;;;;;;6.88;3.28;;;;;;;;;;5055433;28;20135;-58
2023/09/14 05:51:34;;;;;;;5.72;2.65;;;;;;;;;;5067047;28;20044;-58
2023/09/14 05:54:00;;;;;;;5.15;2.50;;;;;;;;;;5066047;28;20032;-58
2023/09/14 05:56:26;;;;;;;5.78;2.45;;;;;;;;;;5065731;28;20051;-58
2023/09/14 05:58:53;;;;;;;14.80;4.85;;;;;;;;;;5063996;28;20047;-58
2023/09/14 06:01:20;;;;;;;6.70;2.50;;;;;;;;;;5067433;28;20109;-58
2023/09/14 06:03:46;;;;;;;6.82;2.78;;;;;;;;;;5063938;28;20040;-58
2023/09/14 06:06:12;;;;;;;7.82;2.80;;;;;;;;;;5063154;28;20044;-58
2023/09/14 06:08:40;;;;;;;10.52;3.20;;;;;;;;;;5070949;28;20549;-58
2023/09/14 06:11:06;;;;;;;6.53;2.97;;;;;;;;;;5062142;28;20044;-58
2023/09/14 06:13:33;;;;;;;5.13;2.75;;;;;;;;;;5073833;28;20040;-58
2023/09/14 06:15:59;;;;;;;7.57;3.00;;;;;;;;;;5074647;28;20028;-58
2023/09/14 06:18:25;;;;;;;8.00;3.33;;;;;;;;;;5073690;28;20059;-59
2023/09/14 06:20:51;;;;;;;9.07;3.58;;;;;;;;;;5074310;28;20085;-58
2023/09/14 06:23:17;;;;;;;8.82;3.00;;;;;;;;;;5071989;28;20412;-58
2023/09/14 06:25:44;;;;;;;9.43;3.42;;;;;;;;;;5064530;28;20036;-64
2023/09/14 06:28:10;;;;;;;12.73;3.15;;;;;;;;;;5070080;28;20044;-58
2023/09/14 06:30:37;;;;;;;8.30;3.00;;;;;;;;;;5072381;28;20054;-58
2023/09/14 06:33:03;;;;;;;8.65;2.90;;;;;;;;;;5066908;28;20473;-59
2023/09/14 06:35:29;;;;;;;7.03;2.75;;;;;;;;;;5060982;28;20047;-58
2023/09/14 06:37:55;;;;;;;7.10;3.00;;;;;;;;;;5061079;28;20621;-59
2023/09/14 06:40:22;;;;;;;5.90;2.70;;;;;;;;;;5064912;28;20048;-59
2023/09/14 06:42:48;;;;;;;8.93;2.75;;;;;;;;;;5071904;28;20078;-59
2023/09/14 06:45:14;;;;;;;6.18;2.50;;;;;;;;;;5068718;28;20075;-59
2023/09/14 06:47:40;;;;;;;5.35;2.42;;;;;;;;;;5065151;28;20912;-59
2023/09/14 06:50:07;;;;;;;9.35;2.50;;;;;;;;;;5064839;28;20040;-59
2023/09/14 06:52:34;;;;;;;6.00;2.17;;;;;;;;;;5070793;28;20048;-59
2023/09/14 06:55:00;;;;;;;8.20;2.67;;;;;;;;;;5069132;28;20451;-59
2023/09/14 06:57:26;;;;;;;9.95;2.63;;;;;;;;;;5063944;28;20138;-59
2023/09/14 06:59:52;;;;;;;7.20;2.40;;;;;;;;;;5063868;28;20037;-59
2023/09/14 07:02:19;;;;;;;7.47;2.92;;;;;;;;;;5064512;28;20128;-59
2023/09/14 07:04:45;;;;;;;6.25;2.20;;;;;;;;;;5067840;28;20036;-59
2023/09/14 07:07:11;;;;;;;9.88;2.50;;;;;;;;;;5062491;28;20098;-58
2023/09/14 07:09:37;;;;;;;5.60;2.03;;;;;;;;;;5062846;28;20537;-59
2023/09/14 07:12:03;;;;;;;7.00;2.38;;;;;;;;;;5064941;28;20043;-59
2023/09/14 07:14:30;;;;;;;5.88;2.10;;;;;;;;;;5066182;28;20083;-59
2023/09/14 07:16:56;;;;;;;9.05;2.20;;;;;;;;;;5061142;28;20047;-59
2023/09/14 07:19:26;;;;;;;4.63;1.85;;;;;;;;;;5067195;28;20500;-59
2023/09/14 07:21:54;;;;;;;5.30;1.70;;;;;;;;;;5062757;28;20465;-59
2023/09/14 07:24:21;;;;;;;5.80;1.83;;;;;;;;;;5069078;28;20050;-59
2023/09/14 07:26:48;;;;;;;5.82;1.92;;;;;;;;;;5065722;28;20505;-59
2023/09/14 07:29:15;;;;;;;6.97;1.60;;;;;;;;;;5064620;28;20487;-59
2023/09/14 07:31:41;;;;;;;7.20;2.22;;;;;;;;;;5062495;28;20041;-59
2023/09/14 07:34:07;;;;;;;7.70;1.75;;;;;;;;;;5062690;28;20070;-59
2023/09/14 07:36:34;;;;;;;9.90;2.65;;;;;;;;;;5063053;28;20115;-59
2023/09/14 07:39:00;;;;;;;7.70;2.03;;;;;;;;;;5063750;28;20061;-59
2023/09/14 07:41:26;;;;;;;7.03;1.80;;;;;;;;;;5062985;28;20040;-59
2023/09/14 07:43:52;;;;;;;11.68;3.17;;;;;;;;;;5062841;28;20120;-59
2023/09/14 07:46:19;;;;;;;4.22;1.70;;;;;;;;;;5061642;28;20421;-59
2023/09/14 07:48:45;;;;;;;8.27;2.03;;;;;;;;;;5060374;28;20113;-59
2023/09/14 07:51:11;;;;;;;7.18;1.75;;;;;;;;;;5065546;28;20523;-59
2023/09/14 07:53:37;;;;;;;6.57;1.85;;;;;;;;;;5063471;28;20098;-59
2023/09/14 07:56:03;;;;;;;5.50;1.92;;;;;;;;;;5068646;28;20357;-61
2023/09/14 07:58:30;;;;;;;9.95;1.67;;;;;;;;;;5072507;28;20083;-59
2023/09/14 08:00:56;;;;;;;10.27;2.03;;;;;;;;;;5072672;28;20365;-59
2023/09/14 08:03:23;;;;;;;6.53;1.60;;;;;;;;;;5071655;28;20055;-59
2023/09/14 08:05:51;;;;;;;8.55;1.65;;;;;;;;;;5071240;28;20088;-59
2023/09/14 08:08:17;;;;;;;8.40;2.00;;;;;;;;;;5068101;28;20048;-59
2023/09/14 08:10:49;;;;;;;9.30;2.20;;;;;;;;;;5069825;28;20656;-59
2023/09/14 08:13:15;;;;;;;6.60;1.83;;;;;;;;;;5069475;28;20052;-59
2023/09/14 08:15:41;;;;;;;5.20;1.67;;;;;;;;;;5069835;28;20546;-64
2023/09/14 08:18:08;;;;;;;7.35;1.85;;;;;;;;;;5103702;28;20058;-59
2023/09/14 08:20:42;;;;;;;5.00;1.65;;;;;;;;;;5070719;28;20397;-59
2023/09/14 08:23:09;;;;;;;9.25;1.70;;;;;;;;;;5071430;28;20097;-59
2023/09/14 08:25:37;;;;;;;6.28;1.80;;;;;;;;;;5068788;28;20128;-59
2023/09/14 08:28:04;;;;;;;6.85;1.90;;;;;;;;;;5069979;28;20048;-59
2023/09/14 08:30:30;;;;;;;6.07;1.60;;;;;;;;;;5062818;28;20399;-59
2023/09/14 08:32:56;;;;;;;6.10;1.75;;;;;;;;;;5062505;28;20086;-59
2023/09/14 08:35:31;;;;;;;11.15;2.08;;;;;;;;;;5069365;28;20036;-59
2023/09/14 08:37:58;;;;;;;8.30;1.90;;;;;;;;;;5052145;28;20057;-59
2023/09/14 08:40:24;;;;;;;9.75;1.88;;;;;;;;;;5055336;28;20173;-59
2023/09/14 08:42:54;;;;;;;10.38;2.10;;;;;;;;;;5069631;28;20040;-59
2023/09/14 08:45:25;;;;;;;10.68;1.80;;;;;;;;;;5065262;28;20041;-59
2023/09/14 08:47:52;;;;;;;10.35;2.20;;;;;;;;;;5064381;28;20048;-59
2023/09/14 08:50:19;;;;;;;12.10;2.50;;;;;;;;;;5065253;28;20484;-59
2023/09/14 08:52:48;;;;;;;8.25;1.70;;;;;;;;;;5062363;28;20076;-59
2023/09/14 08:55:16;;;;;;;9.45;1.98;;;;;;;;;;5081009;28;20404;-59
2023/09/14 08:57:44;;;;;;;6.90;1.70;;;;;;;;;;5066067;28;20067;-59
2023/09/14 09:00:20;;;;;;;9.15;2.20;;;;;;;;;;5060845;28;20048;-59
2023/09/14 09:02:50;;;;;;;7.60;1.58;;;;;;;;;;5068342;28;20210;-59
2023/09/14 09:05:17;;;;;;;11.70;2.00;;;;;;;;;;5060843;28;20454;-59
2023/09/14 09:07:44;;;;;;;12.35;2.10;;;;;;;;;;5065014;28;20048;-59
2023/09/14 09:10:16;;;;;;;7.95;1.92;;;;;;;;;;5064070;28;20048;-59
2023/09/14 09:12:42;;;;;;;7.72;1.70;;;;;;;;;;5061119;28;20109;-59
2023/09/14 09:15:09;;;;;;;14.10;3.45;;;;;;;;;;5063206;28;20164;-59
2023/09/14 09:17:39;;;;;;;12.65;2.17;;;;;;;;;;5061212;28;21105;-60
2023/09/14 09:20:19;;;;;;;9.02;2.25;;;;;;;;;;5063162;28;20507;-60
2023/09/14 09:22:45;;;;;;;8.45;2.30;;;;;;;;;;5058471;28;20399;-59
2023/09/14 09:25:12;;;;;;;6.43;2.15;;;;;;;;;;5070660;28;20105;-59
2023/09/14 09:27:39;;;;;;;14.27;2.45;;;;;;;;;;5067931;28;20349;-59
2023/09/14 09:30:06;;;;;;;10.50;3.08;;;;;;;;;;5070982;28;20044;-59
2023/09/14 09:32:32;;;;;;;5.97;1.77;;;;;;;;;;5068330;28;20040;-59
2023/09/14 09:35:19;;;;;;;9.88;2.10;;;;;;;;;;5070166;28;20047;-59
2023/09/14 09:37:45;;;;;;;6.38;1.70;;;;;;;;;;5069437;28;20041;-59
2023/09/14 09:40:12;;;;;;;8.32;1.83;;;;;;;;;;5067605;28;20060;-59
2023/09/14 09:42:39;;;;;;;5.68;1.80;;;;;;;;;;5069058;28;20081;-59
2023/09/14 09:45:09;;;;;;;7.53;2.13;;;;;;;;;;5066920;28;20128;-59
2023/09/14 09:47:38;;;;;;;8.25;2.13;;;;;;;;;;5064952;28;20061;-59
2023/09/14 09:50:13;;;;;;;9.15;3.03;;;;;;;;;;5069242;28;20055;-59
2023/09/14 09:52:40;;;;;;;5.95;2.15;;;;;;;;;;5070494;28;20392;-58
2023/09/14 09:55:07;;;;;;;9.10;2.10;;;;;;;;;;5069860;28;20040;-58
2023/09/14 09:57:36;;;;;;;11.35;2.10;;;;;;;;;;5069056;28;20150;-58
2023/09/14 10:00:13;;;;;;;8.13;2.10;;;;;;;;;;5066173;28;20118;-64
2023/09/14 10:02:42;;;;;;;8.07;2.00;;;;;;;;;;5050558;28;20085;-59
2023/09/14 10:05:09;;;;;;;7.88;1.80;;;;;;;;;;5070467;28;20501;-59
2023/09/14 10:07:38;;;;;;;10.05;3.25;;;;;;;;;;5066109;28;20072;-58
2023/09/14 10:10:04;;;;;;;13.15;2.10;;;;;;;;;;5064976;28;20463;-58
2023/09/14 10:12:32;;;;;;;9.18;2.38;;;;;;;;;;5067826;28;20396;-59
2023/09/14 10:15:04;;;;;;;13.23;2.47;;;;;;;;;;5070137;28;20463;-59
2023/09/14 10:17:31;;;;;;;13.65;3.90;;;;;;;;;;5064562;28;20063;-58
2023/09/14 10:20:01;;;;;;;9.65;3.90;;;;;;;;;;5076611;28;20044;-59
2023/09/14 10:22:28;;;;;;;14.30;5.05;;;;;;;;;;5063987;28;20055;-59
2023/09/14 10:24:58;;;;;;;15.60;5.20;;;;;;;;;;5069365;28;20072;-60
2023/09/14 10:27:26;;;;;;;16.75;6.28;;;;;;;;;;5067856;28;20115;-60
2023/09/14 10:29:52;;;;;;;19.05;7.38;;;;;;;;;;5068363;28;20503;-60
2023/09/14 10:32:20;;;;;;;17.17;7.05;;;;;;;;;;5069837;28;20072;-60
2023/09/14 10:34:46;;;;;;;18.90;6.60;;;;;;;;;;5070361;28;20118;-60
2023/09/14 10:37:12;;;;;;;22.90;9.55;;;;;;;;;;5096290;28;20123;-60
2023/09/14 10:39:38;;;;;;;21.33;9.18;;;;;;;;;;5069631;28;20044;-60
2023/09/14 10:42:05;;;;;;;17.60;7.53;;;;;;;;;;5070269;28;20488;-60
2023/09/14 10:44:32;;;;;;;17.15;6.43;;;;;;;;;;5069150;28;20500;-60
2023/09/14 10:46:59;;;;;;;17.50;5.22;;;;;;;;;;5069873;28;20089;-60
2023/09/14 10:49:28;;;;;;;14.35;5.18;;;;;;;;;;5069809;28;20040;-60
2023/09/14 10:51:55;;;;;;;12.32;4.28;;;;;;;;;;5068378;28;20045;-60
2023/09/14 10:54:29;;;;;;;16.48;5.00;;;;;;;;;;5073815;28;20193;-60
2023/09/14 10:56:56;;;;;;;13.43;5.55;;;;;;;;;;5070533;28;20040;-61
2023/09/14 10:59:42;;;;;;;12.57;5.88;;;;;;;;;;5069917;28;20055;-61
2023/09/14 11:02:08;;;;;;;12.82;4.75;;;;;;;;;;5069626;28;20543;-61
2023/09/14 11:04:34;;;;;;;9.35;2.38;;;;;;;;;;5061123;28;20074;-61
2023/09/14 11:07:04;;;;;;;7.07;2.15;;;;;;;;;;5072628;28;20063;-61
2023/09/14 11:09:30;;;;;;;9.73;2.72;;;;;;;;;;5071526;28;20052;-61
2023/09/14 11:11:56;;;;;;;11.40;2.67;;;;;;;;;;5069983;28;20473;-61
2023/09/14 11:14:24;;;;;;;7.90;2.72;;;;;;;;;;5071278;28;20039;-61
2023/09/14 11:16:50;;;;;;;7.78;2.47;;;;;;;;;;5070756;28;20040;-61
2023/09/14 11:19:32;;;;;;;8.80;2.42;;;;;;;;;;5065219;28;20120;-61
2023/09/14 11:22:05;;;;;;;6.95;2.53;;;;;;;;;;5061286;28;20472;-62
2023/09/14 11:24:34;;;;;;;10.48;3.08;;;;;;;;;;5062494;28;20439;-61
2023/09/14 11:27:01;;;;;;;7.45;2.50;;;;;;;;;;5064553;28;20044;-61
2023/09/14 11:29:28;;;;;;;9.68;2.70;;;;;;;;;;5064782;28;20363;-61
2023/09/14 11:32:07;;;;;;;8.77;3.25;;;;;;;;;;5070853;28;20040;-61
2023/09/14 11:34:35;;;;;;;11.73;2.70;;;;;;;;;;5066178;28;20072;-60
2023/09/14 11:37:03;;;;;;;7.65;2.30;;;;;;;;;;5069661;28;21458;-61
2023/09/14 11:39:31;;;;;;;5.68;2.22;;;;;;;;;;5065562;28;20419;-61
2023/09/14 11:42:00;;;;;;;6.18;2.40;;;;;;;;;;5066702;28;20051;-61
2023/09/14 11:44:29;;;;;;;10.27;2.22;;;;;;;;;;5065824;28;20107;-59
2023/09/14 11:46:56;;;;;;;8.70;2.15;;;;;;;;;;5066348;28;20531;-59
2023/09/14 11:49:28;;;;;;;9.05;2.22;;;;;;;;;;5071633;28;20059;-59
2023/09/14 11:51:55;;;;;;;9.13;2.30;;;;;;;;;;5070022;28;20053;-59
2023/09/14 11:54:21;;;;;;;8.05;2.53;;;;;;;;;;5071632;28;20103;-59
2023/09/14 11:56:48;;;;;;;8.13;2.50;;;;;;;;;;5072714;28;20037;-59
2023/09/14 11:59:28;;;;;;;6.78;2.38;;;;;;;;;;5072419;28;20055;-59
2023/09/14 12:01:54;;;;;;;7.25;2.13;;;;;;;;;;5069818;28;20480;-59
2023/09/14 12:04:22;;;;;;;10.48;2.25;;;;;;;;;;5069742;28;20043;-59
2023/09/14 12:06:48;;;;;;;8.70;2.70;;;;;;;;;;5072708;28;20127;-59
2023/09/14 12:09:15;;;;;;;9.30;2.30;;;;;;;;;;5071380;28;20060;-59
2023/09/14 12:11:43;;;;;;;6.70;2.17;;;;;;;;;;5068931;28;20304;-61
2023/09/14 12:14:10;;;;;;;10.60;2.33;;;;;;;;;;5068014;28;20403;-61
2023/09/14 12:16:39;;;;;;;10.00;2.20;;;;;;;;;;5099880;27;20049;-61
2023/09/14 12:19:12;;;;;;;9.80;2.42;;;;;;;;;;5068840;28;20040;-61
2023/09/14 12:21:38;;;;;;;9.00;2.40;;;;;;;;;;5066650;28;20093;-61
2023/09/14 12:24:05;;;;;;;8.93;2.47;;;;;;;;;;5070971;28;20049;-61
2023/09/14 12:26:32;;;;;;;8.60;2.40;;;;;;;;;;5071273;28;20404;-61
2023/09/14 12:28:59;;;;;;;7.97;2.42;;;;;;;;;;5069932;28;20392;-61
2023/09/14 12:31:26;;;;;;;8.57;2.40;;;;;;;;;;5067904;28;20043;-61
2023/09/14 12:33:53;;;;;;;9.25;2.80;;;;;;;;;;5071576;28;20048;-61
2023/09/14 12:36:20;;;;;;;11.38;2.75;;;;;;;;;;5070050;28;20090;-61
2023/09/14 12:38:49;;;;;;;9.32;2.58;;;;;;;;;;5071154;28;20041;-61
2023/09/14 12:41:15;;;;;;;9.35;2.58;;;;;;;;;;5071607;28;20040;-61
2023/09/14 12:43:42;;;;;;;7.47;2.35;;;;;;;;;;5069886;28;20040;-61
2023/09/14 12:46:08;;;;;;;8.40;2.00;;;;;;;;;;5070871;28;20040;-61
2023/09/14 12:48:34;;;;;;;8.27;2.60;;;;;;;;;;5071415;28;20510;-61
2023/09/14 12:51:05;;;;;;;7.13;2.35;;;;;;;;;;5070284;28;20048;-61
2023/09/14 12:53:37;;;;;;;7.63;2.58;;;;;;;;;;5072816;28;20048;-61
2023/09/14 12:56:03;;;;;;;7.57;2.40;;;;;;;;;;5069740;28;20471;-61
2023/09/14 12:58:30;;;;;;;8.27;3.13;;;;;;;;;;5069569;28;20044;-61
2023/09/14 13:00:56;;;;;;;8.60;3.00;;;;;;;;;;5071323;28;20051;-61
2023/09/14 13:03:22;;;;;;;8.75;3.05;;;;;;;;;;5070185;28;20120;-61
2023/09/14 13:05:53;;;;;;;9.35;3.08;;;;;;;;;;5065911;28;20048;-60
2023/09/14 13:08:20;;;;;;;7.97;2.25;;;;;;;;;;5066858;28;20079;-60
2023/09/14 13:10:46;;;;;;;9.45;2.45;;;;;;;;;;5063739;28;20158;-61
2023/09/14 13:13:12;;;;;;;7.97;2.78;;;;;;;;;;5059874;28;20041;-61
2023/09/14 13:15:40;;;;;;;7.82;2.22;;;;;;;;;;5060324;28;20040;-60
2023/09/14 13:18:09;;;;;;;9.05;2.67;;;;;;;;;;5058977;28;20148;-60
2023/09/14 13:20:42;;;;;;;8.70;2.45;;;;;;;;;;5101983;28;20439;-60
2023/09/14 13:23:08;;;;;;;13.75;3.97;;;;;;;;;;5067810;28;20048;-60
2023/09/14 13:25:34;;;;;;;9.93;2.65;;;;;;;;;;5065494;28;20155;-60
2023/09/14 13:28:01;;;;;;;8.23;2.40;;;;;;;;;;5069857;28;20413;-60
2023/09/14 13:30:33;;;;;;;7.60;2.83;;;;;;;;;;5056044;28;20128;-60
2023/09/14 13:33:01;;;;;;;9.18;3.38;;;;;;;;;;5055686;28;20058;-60
2023/09/14 13:35:27;;;;;;;12.27;3.03;;;;;;;;;;5069217;28;20095;-60
2023/09/14 13:37:56;;;;;;;6.65;2.67;;;;;;;;;;5068664;28;20044;-60
2023/09/14 13:40:23;;;;;;;12.57;2.75;;;;;;;;;;5058851;28;20053;-60
2023/09/14 13:42:50;;;;;;;8.13;2.60;;;;;;;;;;5066037;28;20414;-60
2023/09/14 13:45:17;;;;;;;5.90;2.63;;;;;;;;;;5070651;28;20574;-60
2023/09/14 13:47:44;;;;;;;7.07;2.60;;;;;;;;;;5064458;28;20420;-59
2023/09/14 13:50:11;;;;;;;10.02;2.60;;;;;;;;;;5065066;28;20528;-59
2023/09/14 13:52:37;;;;;;;8.82;2.58;;;;;;;;;;5068712;28;20109;-60
2023/09/14 13:55:05;;;;;;;9.70;2.92;;;;;;;;;;5068162;28;20036;-59
2023/09/14 13:57:32;;;;;;;7.13;2.65;;;;;;;;;;5060423;28;20044;-59
2023/09/14 13:59:58;;;;;;;8.52;2.83;;;;;;;;;;5068264;28;20063;-60
2023/09/14 14:02:24;;;;;;;8.30;2.70;;;;;;;;;;5068084;28;20112;-59
2023/09/14 14:04:51;;;;;;;7.30;2.83;;;;;;;;;;5069801;28;20456;-59
2023/09/14 14:07:18;;;;;;;8.82;2.50;;;;;;;;;;5069933;28;20051;-59
2023/09/14 14:09:44;;;;;;;9.30;2.83;;;;;;;;;;5068181;28;20040;-59
2023/09/14 14:12:10;;;;;;;7.22;2.90;;;;;;;;;;5064344;28;20045;-59
2023/09/14 14:14:37;;;;;;;8.60;2.75;;;;;;;;;;5068903;28;20540;-59
2023/09/14 14:17:03;;;;;;;11.48;2.95;;;;;;;;;;5070338;28;20052;-59
2023/09/14 14:19:29;;;;;;;9.25;2.60;;;;;;;;;;5078812;28;20144;-60
2023/09/14 14:21:56;;;;;;;7.40;2.50;;;;;;;;;;5069343;28;20051;-59
2023/09/14 14:24:22;;;;;;;9.65;2.78;;;;;;;;;;5070312;28;20410;-59
2023/09/14 14:26:51;;;;;;;10.43;2.42;;;;;;;;;;5070322;28;20033;-59
2023/09/14 14:29:18;;;;;;;7.47;2.60;;;;;;;;;;5069685;28;20123;-60
2023/09/14 14:31:44;;;;;;;9.25;2.78;;;;;;;;;;5065090;28;20072;-59
2023/09/14 14:34:12;;;;;;;5.82;2.28;;;;;;;;;;5072653;28;20037;-59
2023/09/14 14:36:39;;;;;;;9.05;2.75;;;;;;;;;;5059104;28;20432;-59
2023/09/14 14:39:05;;;;;;;10.73;2.95;;;;;;;;;;5073025;28;20036;-59
2023/09/14 14:41:31;;;;;;;6.03;2.58;;;;;;;;;;5072231;28;20085;-60